Time;durP1;ratioP1;P1;durP2;ratioP2;P2;SDS_P1;SDS_P2;PMS_P1;PMS_P2;Temp;Humidity;BMP_temperature;BMP_pressure;BME280_temperature;BME280_humidity;BME280_pressure;Samples;Min_cycle;Max_cycle;Signal;HPM_P1;HPM_P2
2024/04/16 00:00:26;;;;;;;2.03;1.80;;;;;;;6.55;100.00;99401.84;5346944;26;20436;-73
2024/04/16 00:02:54;;;;;;;4.57;2.03;;;;;;;6.47;100.00;99409.81;5345362;26;20264;-72
2024/04/16 00:05:19;;;;;;;4.33;2.00;;;;;;;6.43;100.00;99401.06;5332017;26;20693;-72
2024/04/16 00:07:47;;;;;;;2.37;1.90;;;;;;;6.36;100.00;99401.59;5315617;26;20242;-72
2024/04/16 00:10:13;;;;;;;2.90;1.90;;;;;;;6.35;100.00;99407.94;5346393;26;20826;-72
2024/04/16 00:12:43;;;;;;;4.17;2.20;;;;;;;6.34;100.00;99410.88;5333296;26;20236;-72
2024/04/16 00:15:23;;;;;;;2.73;2.30;;;;;;;6.33;100.00;99409.34;5281354;27;20699;-72
2024/04/16 00:17:52;;;;;;;2.60;1.93;;;;;;;6.34;100.00;99416.13;5281014;27;20247;-73
2024/04/16 00:20:17;;;;;;;6.83;2.80;;;;;;;6.31;100.00;99414.16;5290600;26;20239;-73
2024/04/16 00:22:47;;;;;;;4.60;2.60;;;;;;;6.30;100.00;99413.38;5315147;26;20347;-72
2024/04/16 00:25:12;;;;;;;5.17;2.67;;;;;;;6.25;100.00;99418.84;5345424;26;20713;-72
2024/04/16 00:27:44;;;;;;;3.53;1.83;;;;;;;6.25;100.00;99416.22;5318684;26;20239;-72
2024/04/16 00:30:10;;;;;;;3.83;3.00;;;;;;;6.26;100.00;99414.38;5281869;27;20718;-73
2024/04/16 00:32:38;;;;;;;3.13;2.43;;;;;;;6.26;100.00;99411.75;5337792;26;20332;-72
2024/04/16 00:35:04;;;;;;;2.67;2.30;;;;;;;6.27;100.00;99429.00;5322749;26;20303;-72
2024/04/16 00:37:32;;;;;;;3.90;2.67;;;;;;;6.28;100.00;99415.56;5335428;26;20689;-72
2024/04/16 00:39:57;;;;;;;3.40;2.30;;;;;;;6.29;100.00;99432.06;5346292;26;20227;-73
2024/04/16 00:42:25;;;;;;;3.00;2.30;;;;;;;6.29;100.00;99413.72;5345424;26;20313;-72
2024/04/16 00:44:53;;;;;;;4.17;2.27;;;;;;;6.32;100.00;99415.69;5345838;26;20796;-72
2024/04/16 00:47:22;;;;;;;4.17;2.30;;;;;;;6.32;100.00;99418.31;5346102;26;20293;-72
2024/04/16 00:49:47;;;;;;;3.40;1.97;;;;;;;6.32;100.00;99413.81;5346033;26;20636;-72
2024/04/16 00:52:16;;;;;;;2.63;2.20;;;;;;;6.34;100.00;99422.13;5345586;26;20223;-72
2024/04/16 00:54:42;;;;;;;3.07;2.60;;;;;;;6.34;100.00;99429.22;5319554;26;20287;-72
2024/04/16 00:57:11;;;;;;;4.60;2.10;;;;;;;6.35;100.00;99425.50;5339521;26;20285;-72
2024/04/16 00:59:39;;;;;;;2.87;2.37;;;;;;;6.36;100.00;99427.81;5345272;26;20223;-72
2024/04/16 01:02:09;;;;;;;4.77;2.63;;;;;;;6.35;100.00;99430.75;5345206;26;20282;-72
2024/04/16 01:04:35;;;;;;;4.43;2.73;;;;;;;6.37;100.00;99429.34;5345477;26;20238;-72
2024/04/16 01:07:03;;;;;;;3.50;2.03;;;;;;;6.33;100.00;99428.44;5319939;26;20294;-71
2024/04/16 01:09:28;;;;;;;3.20;2.10;;;;;;;6.31;100.00;99419.41;5345160;26;20754;-72
2024/04/16 01:11:59;;;;;;;2.40;2.20;;;;;;;6.25;100.00;99424.06;5351915;26;20226;-72
2024/04/16 01:14:25;;;;;;;3.57;2.07;;;;;;;6.23;100.00;99422.88;5361058;26;20231;-72
2024/04/16 01:16:54;;;;;;;2.20;2.00;;;;;;;6.16;100.00;99427.88;5345172;26;20276;-72
2024/04/16 01:19:22;;;;;;;2.87;1.60;;;;;;;6.11;100.00;99431.47;5345766;26;20227;-71
2024/04/16 01:21:50;;;;;;;3.07;2.23;;;;;;;6.07;100.00;99427.94;5345164;26;20748;-72
2024/04/16 01:24:20;;;;;;;3.63;1.80;;;;;;;6.07;100.00;99432.44;5344413;26;20290;-73
2024/04/16 01:26:48;;;;;;;3.43;2.13;;;;;;;5.99;100.00;99428.81;5344746;26;20621;-72
2024/04/16 01:29:14;;;;;;;2.87;1.70;;;;;;;5.97;100.00;99427.59;5345893;26;20302;-72
2024/04/16 01:31:42;;;;;;;2.53;1.97;;;;;;;5.91;100.00;99424.41;5345896;26;20227;-72
2024/04/16 01:34:07;;;;;;;2.30;1.87;;;;;;;5.85;100.00;99420.44;5345268;26;20276;-72
2024/04/16 01:36:35;;;;;;;6.13;2.00;;;;;;;5.79;100.00;99421.72;5344972;26;20733;-72
2024/04/16 01:39:01;;;;;;;3.03;2.37;;;;;;;5.74;100.00;99426.38;5345691;26;20724;-72
2024/04/16 01:41:31;;;;;;;2.73;2.03;;;;;;;5.68;100.00;99422.41;5345135;26;20223;-73
2024/04/16 01:43:57;;;;;;;2.40;2.00;;;;;;;5.59;100.00;99421.75;5314691;26;20310;-72
2024/04/16 01:46:25;;;;;;;3.37;1.93;;;;;;;5.54;100.00;99422.69;5344978;26;20305;-73
2024/04/16 01:48:50;;;;;;;5.87;2.07;;;;;;;5.49;100.00;99422.13;5347368;26;20281;-72
2024/04/16 01:51:18;;;;;;;7.10;2.67;;;;;;;5.41;100.00;99423.72;5344690;26;20242;-72
2024/04/16 01:53:43;;;;;;;2.83;2.30;;;;;;;5.35;100.00;99409.28;5345444;26;20305;-72
2024/04/16 01:56:12;;;;;;;2.67;2.30;;;;;;;5.29;100.00;99417.63;5320481;26;20233;-72
2024/04/16 01:58:40;;;;;;;5.37;2.40;;;;;;;5.24;100.00;99415.97;5311566;26;20702;-72
2024/04/16 02:01:08;;;;;;;3.10;2.27;;;;;;;5.19;100.00;99426.59;5345185;26;20227;-73
2024/04/16 02:03:36;;;;;;;3.80;2.53;;;;;;;5.16;100.00;99416.00;5344935;26;20302;-73
2024/04/16 02:06:06;;;;;;;3.73;2.50;;;;;;;5.11;100.00;99430.06;5345074;26;20222;-72
2024/04/16 02:08:31;;;;;;;3.90;2.80;;;;;;;5.07;100.00;99423.91;5345041;26;20667;-72
2024/04/16 02:11:00;;;;;;;5.00;2.50;;;;;;;5.05;100.00;99426.09;5328998;26;20248;-73
2024/04/16 02:13:26;;;;;;;5.30;2.33;;;;;;;5.00;100.00;99421.03;5340218;26;20266;-72
2024/04/16 02:15:57;;;;;;;2.93;2.60;;;;;;;4.99;100.00;99418.75;5344960;26;20794;-73
2024/04/16 02:18:22;;;;;;;4.57;3.30;;;;;;;4.94;100.00;99422.31;5344340;26;20299;-72
2024/04/16 02:20:50;;;;;;;4.43;2.70;;;;;;;4.91;100.00;99420.31;5344872;26;20348;-72
2024/04/16 02:23:16;;;;;;;4.77;2.73;;;;;;;4.88;100.00;99414.97;5344577;26;20313;-72
2024/04/16 02:25:48;;;;;;;3.27;2.57;;;;;;;4.86;100.00;99404.03;5318488;26;20345;-72
2024/04/16 02:28:14;;;;;;;3.57;2.87;;;;;;;4.82;100.00;99409.13;5310605;27;20279;-72
2024/04/16 02:30:42;;;;;;;3.97;2.80;;;;;;;4.79;100.00;99396.69;5310548;27;20341;-72
2024/04/16 02:33:10;;;;;;;3.37;2.67;;;;;;;4.77;100.00;99404.06;5310730;26;20355;-72
2024/04/16 02:35:38;;;;;;;4.20;2.60;;;;;;;4.73;100.00;99399.78;5309956;27;20272;-71
2024/04/16 02:38:04;;;;;;;4.30;2.50;;;;;;;4.74;100.00;99396.09;5310087;27;20326;-73
2024/04/16 02:40:32;;;;;;;2.47;2.20;;;;;;;4.70;100.00;99410.88;5320804;26;20589;-72
2024/04/16 02:42:57;;;;;;;4.50;2.50;;;;;;;4.65;100.00;99406.59;5344169;26;20239;-72
2024/04/16 02:45:27;;;;;;;3.70;2.43;;;;;;;4.64;100.00;99396.44;5344440;26;20700;-72
2024/04/16 02:47:54;;;;;;;6.30;2.90;;;;;;;4.61;100.00;99392.63;5344175;26;20278;-73
2024/04/16 02:50:25;;;;;;;2.53;2.20;;;;;;;4.59;100.00;99399.22;5344294;26;20231;-72
2024/04/16 02:52:51;;;;;;;2.23;1.97;;;;;;;4.55;100.00;99395.72;5344047;26;20234;-72
2024/04/16 02:55:20;;;;;;;7.50;2.50;;;;;;;4.53;100.00;99387.44;5345148;26;20227;-72
2024/04/16 02:57:48;;;;;;;3.50;2.67;;;;;;;4.51;100.00;99384.38;5348174;26;20227;-73
2024/04/16 03:00:14;;;;;;;4.57;2.33;;;;;;;4.50;100.00;99382.84;5347872;26;20295;-72
2024/04/16 03:02:42;;;;;;;4.27;2.57;;;;;;;4.49;100.00;99378.66;5347480;26;20676;-73
2024/04/16 03:05:07;;;;;;;3.07;2.40;;;;;;;4.48;100.00;99370.09;5347314;26;20411;-73
2024/04/16 03:07:37;;;;;;;4.87;2.23;;;;;;;4.49;100.00;99373.44;5312589;27;20239;-71
2024/04/16 03:10:04;;;;;;;2.97;2.50;;;;;;;4.52;100.00;99375.44;5313490;27;20220;-73
2024/04/16 03:12:32;;;;;;;3.03;1.93;;;;;;;4.55;100.00;99366.97;5340116;26;20629;-72
2024/04/16 03:14:57;;;;;;;2.70;2.17;;;;;;;4.61;100.00;99371.69;5347879;26;20349;-73
2024/04/16 03:17:25;;;;;;;7.27;2.40;;;;;;;4.66;100.00;99374.13;5347750;26;20235;-72
2024/04/16 03:19:52;;;;;;;5.33;2.40;;;;;;;4.72;100.00;99359.81;5317141;26;20286;-72
2024/04/16 03:22:20;;;;;;;2.67;2.10;;;;;;;4.75;100.00;99368.84;5347624;26;20344;-72
2024/04/16 03:24:50;;;;;;;5.67;2.50;;;;;;;4.79;100.00;99369.78;5347027;26;20223;-72
2024/04/16 03:27:18;;;;;;;3.23;1.93;;;;;;;4.81;100.00;99365.00;5343017;26;20262;-72
2024/04/16 03:29:43;;;;;;;5.17;1.87;;;;;;;4.82;100.00;99367.28;5312504;27;20803;-72
2024/04/16 03:32:11;;;;;;;2.50;2.23;;;;;;;4.82;100.00;99367.28;5312726;27;20240;-72
2024/04/16 03:34:37;;;;;;;3.23;2.17;;;;;;;4.81;100.00;99371.00;5329340;26;20812;-72
2024/04/16 03:37:05;;;;;;;5.53;2.17;;;;;;;4.77;100.00;99377.91;5346921;26;20281;-73
2024/04/16 03:39:33;;;;;;;5.83;1.90;;;;;;;4.78;100.00;99376.88;5346966;26;20286;-72
2024/04/16 03:42:04;;;;;;;4.23;1.80;;;;;;;4.80;100.00;99376.53;5346835;26;20563;-72
2024/04/16 03:44:32;;;;;;;2.23;1.97;;;;;;;4.81;100.00;99373.59;5347286;26;20729;-72
2024/04/16 03:46:57;;;;;;;2.87;1.77;;;;;;;4.86;100.00;99375.25;5346914;26;20567;-73
2024/04/16 03:49:26;;;;;;;4.00;1.90;;;;;;;4.92;100.00;99368.78;5346436;26;20341;-72
2024/04/16 03:51:51;;;;;;;3.00;1.67;;;;;;;4.95;100.00;99376.75;5333734;26;20674;-73
2024/04/16 03:54:19;;;;;;;4.43;2.43;;;;;;;5.01;100.00;99382.56;5345950;26;20243;-72
2024/04/16 03:56:44;;;;;;;4.67;2.30;;;;;;;5.06;100.00;99372.69;5340993;26;20224;-72
2024/04/16 03:59:37;;;;;;;2.37;1.73;;;;;;;5.11;100.00;99375.13;5312665;26;20330;-72
2024/04/16 04:02:02;;;;;;;2.83;1.80;;;;;;;5.17;100.00;99380.91;5320582;26;20754;-73
2024/04/16 04:04:30;;;;;;;3.00;1.70;;;;;;;5.22;100.00;99383.34;5319697;26;20277;-72
2024/04/16 04:06:56;;;;;;;3.97;1.70;;;;;;;5.25;100.00;99375.66;5316508;26;20240;-72
2024/04/16 04:09:24;;;;;;;2.27;1.47;;;;;;;5.31;100.00;99381.44;5345987;26;20231;-72
2024/04/16 04:11:49;;;;;;;3.67;1.60;;;;;;;5.33;100.00;99387.13;5336800;26;20708;-72
2024/04/16 04:14:20;;;;;;;3.00;1.57;;;;;;;5.39;100.00;99383.22;5341456;26;20252;-72
2024/04/16 04:16:45;;;;;;;2.23;1.50;;;;;;;5.42;100.00;99385.19;5346195;26;20779;-72
2024/04/16 04:19:13;;;;;;;5.00;1.67;;;;;;;5.44;100.00;99391.66;5327169;26;20344;-73
2024/04/16 04:21:39;;;;;;;2.90;1.63;;;;;;;5.48;100.00;99400.41;5346530;26;20346;-73
2024/04/16 04:24:07;;;;;;;1.97;1.33;;;;;;;5.52;100.00;99393.44;5316211;26;20251;-72
2024/04/16 04:26:32;;;;;;;1.27;1.13;;;;;;;5.54;100.00;99391.25;5345630;26;20227;-73
2024/04/16 04:29:00;;;;;;;3.43;1.40;;;;;;;5.57;100.00;99392.47;5350353;26;20751;-72
2024/04/16 04:31:28;;;;;;;3.77;1.80;;;;;;;5.62;100.00;99387.81;5346094;26;20311;-72
2024/04/16 04:33:56;;;;;;;1.57;1.17;;;;;;;5.64;100.00;99384.88;5316625;26;20270;-73
2024/04/16 04:36:22;;;;;;;3.97;1.90;;;;;;;5.67;100.00;99381.59;5292954;27;20305;-72
2024/04/16 04:38:50;;;;;;;3.43;1.40;;;;;;;5.70;100.00;99389.59;5253263;27;20334;-73
2024/04/16 04:41:16;;;;;;;2.20;1.40;;;;;;;5.74;100.00;99390.47;5276930;27;20268;-73
2024/04/16 04:43:43;;;;;;;2.37;1.53;;;;;;;5.77;100.00;99397.69;5276740;27;20237;-71
2024/04/16 04:46:10;;;;;;;2.97;1.40;;;;;;;5.80;100.00;99391.84;5277370;27;20300;-72
2024/04/16 04:48:40;;;;;;;3.07;1.30;;;;;;;5.83;100.00;99383.34;5277324;27;20229;-73
2024/04/16 04:51:06;;;;;;;2.80;1.40;;;;;;;5.88;100.00;99392.84;5277182;27;20351;-73
2024/04/16 04:53:37;;;;;;;3.57;1.60;;;;;;;5.90;100.00;99393.31;5275999;27;20253;-72
2024/04/16 04:56:02;;;;;;;2.07;1.10;;;;;;;5.94;100.00;99399.41;5276902;27;20244;-72
2024/04/16 04:58:30;;;;;;;1.50;1.17;;;;;;;5.97;100.00;99404.00;5276386;27;20276;-73
2024/04/16 05:00:56;;;;;;;3.73;1.60;;;;;;;5.99;100.00;99394.75;5275177;27;20241;-72
2024/04/16 05:03:24;;;;;;;1.60;1.10;;;;;;;6.05;100.00;99405.78;5278460;27;20326;-72
2024/04/16 05:05:52;;;;;;;3.27;1.30;;;;;;;6.08;100.00;99407.75;5276008;27;20307;-73
2024/04/16 05:08:20;;;;;;;2.73;1.40;;;;;;;6.12;100.00;99416.50;5276210;27;20229;-72
2024/04/16 05:10:49;;;;;;;1.30;1.20;;;;;;;6.16;100.00;99410.28;5276787;27;20284;-73
2024/04/16 05:13:17;;;;;;;3.63;1.50;;;;;;;6.18;100.00;99412.59;5276275;27;20312;-72
2024/04/16 05:15:44;;;;;;;2.63;1.30;;;;;;;6.22;100.00;99414.22;5276467;27;20626;-72
2024/04/16 05:18:12;;;;;;;5.20;1.57;;;;;;;6.26;100.00;99403.88;5275420;27;20237;-73
2024/04/16 05:20:37;;;;;;;5.00;1.27;;;;;;;6.31;100.00;99422.03;5277213;27;20228;-72
2024/04/16 05:23:08;;;;;;;1.77;1.30;;;;;;;6.35;100.00;99409.78;5276464;27;20275;-72
2024/04/16 05:25:34;;;;;;;2.10;1.30;;;;;;;6.38;100.00;99420.38;5252179;27;20228;-72
2024/04/16 05:28:02;;;;;;;3.20;1.43;;;;;;;6.44;100.00;99420.94;5276333;27;20357;-72
2024/04/16 05:30:27;;;;;;;2.07;1.30;;;;;;;6.48;100.00;99416.59;5274172;27;20734;-74
2024/04/16 05:32:56;;;;;;;3.97;1.60;;;;;;;6.52;100.00;99418.22;5275467;27;20244;-73
2024/04/16 05:35:22;;;;;;;2.87;1.13;;;;;;;6.58;100.00;99422.16;5276107;27;20220;-72
2024/04/16 05:37:50;;;;;;;3.80;1.60;;;;;;;6.63;100.00;99429.06;5275456;27;20287;-73
2024/04/16 05:40:19;;;;;;;7.87;1.47;;;;;;;6.69;100.00;99435.63;5275828;27;20711;-72
2024/04/16 05:42:47;;;;;;;2.17;1.40;;;;;;;6.73;100.00;99432.00;5275740;27;20735;-72
2024/04/16 05:45:13;;;;;;;1.00;0.83;;;;;;;6.79;100.00;99424.69;5276091;27;20280;-72
2024/04/16 05:47:41;;;;;;;2.27;2.13;;;;;;;6.83;100.00;99438.69;5273808;27;20335;-73
2024/04/16 05:50:06;;;;;;;1.50;1.40;;;;;;;6.86;100.00;99436.19;5273915;27;20579;-72
2024/04/16 05:52:34;;;;;;;3.47;1.40;;;;;;;6.89;100.00;99438.13;5275734;27;20256;-72
2024/04/16 05:55:00;;;;;;;4.97;1.40;;;;;;;6.91;100.00;99438.59;5276135;27;20237;-73
2024/04/16 05:57:30;;;;;;;3.37;1.40;;;;;;;6.95;100.00;99443.94;5279817;27;20792;-73
2024/04/16 05:59:56;;;;;;;3.43;1.33;;;;;;;7.01;100.00;99440.00;5269294;27;20859;-73
2024/04/16 06:02:24;;;;;;;3.67;1.17;;;;;;;7.05;100.00;99430.38;5275656;27;20264;-73
2024/04/16 06:04:49;;;;;;;3.10;1.20;;;;;;;7.11;100.00;99421.97;5275570;27;20743;-72
2024/04/16 06:07:17;;;;;;;1.73;1.17;;;;;;;7.19;100.00;99433.44;5260613;27;20283;-73
2024/04/16 06:09:43;;;;;;;3.93;1.60;;;;;;;7.23;100.00;99429.81;5275679;27;20346;-73
2024/04/16 06:12:11;;;;;;;2.50;1.30;;;;;;;7.30;100.00;99424.75;5274394;27;20228;-72
2024/04/16 06:14:39;;;;;;;2.57;1.90;;;;;;;7.33;100.00;99423.31;5274866;27;20233;-72
2024/04/16 06:17:07;;;;;;;6.73;1.80;;;;;;;7.39;100.00;99424.63;5274396;27;20237;-72
2024/04/16 06:19:32;;;;;;;2.50;1.60;;;;;;;7.47;100.00;99426.38;5276121;27;20674;-72
2024/04/16 06:22:00;;;;;;;1.97;1.60;;;;;;;7.61;100.00;99432.78;5267111;27;20230;-72
2024/04/16 06:24:26;;;;;;;3.80;1.50;;;;;;;7.71;100.00;99434.19;5274611;27;20237;-72
2024/04/16 06:26:54;;;;;;;1.93;1.50;;;;;;;7.78;100.00;99421.25;5274333;27;20233;-73
2024/04/16 06:29:20;;;;;;;2.90;1.40;;;;;;;7.81;100.00;99428.47;5274442;27;20237;-72
2024/04/16 06:31:50;;;;;;;2.03;1.30;;;;;;;7.87;100.00;99430.50;5276406;27;20347;-72
2024/04/16 06:34:16;;;;;;;2.63;1.43;;;;;;;7.94;100.00;99433.34;5278104;27;20242;-72
2024/04/16 06:36:44;;;;;;;3.10;1.70;;;;;;;7.98;100.00;99443.94;5275004;27;20659;-73
2024/04/16 06:39:09;;;;;;;2.17;1.43;;;;;;;8.03;100.00;99430.56;5275869;27;20334;-73
2024/04/16 06:41:37;;;;;;;4.00;1.50;;;;;;;8.07;100.00;99429.53;5277816;27;20246;-73
2024/04/16 06:44:03;;;;;;;7.53;1.40;;;;;;;8.09;100.00;99443.13;5277927;27;20241;-72
2024/04/16 06:46:32;;;;;;;3.13;1.30;;;;;;;8.15;100.00;99433.13;5276532;27;20356;-72
2024/04/16 06:49:00;;;;;;;1.77;1.57;;;;;;;8.24;100.00;99439.78;5273387;27;20710;-73
2024/04/16 06:51:27;;;;;;;3.37;1.60;;;;;;;8.26;100.00;99434.97;5275085;27;20738;-71
2024/04/16 06:53:53;;;;;;;3.67;1.63;;;;;;;8.35;100.00;99447.94;5277282;27;20741;-72
2024/04/16 06:56:21;;;;;;;2.63;1.53;;;;;;;8.33;100.00;99437.00;5276432;27;20244;-72
2024/04/16 06:58:46;;;;;;;3.30;1.70;;;;;;;8.32;100.00;99443.34;5276841;27;20350;-73
2024/04/16 07:01:14;;;;;;;4.00;1.60;;;;;;;8.34;100.00;99433.28;5273261;27;20243;-73
2024/04/16 07:03:40;;;;;;;5.07;1.70;;;;;;;8.37;100.00;99437.84;5276823;27;20779;-73
2024/04/16 07:06:11;;;;;;;3.00;1.53;;;;;;;8.39;100.00;99433.78;5277713;27;20253;-72
2024/04/16 07:08:36;;;;;;;3.40;1.77;;;;;;;8.42;100.00;99427.06;5271896;27;20286;-74
2024/04/16 07:11:04;;;;;;;5.27;1.70;;;;;;;8.44;100.00;99430.16;5273511;27;20604;-72
2024/04/16 07:13:29;;;;;;;2.87;1.53;;;;;;;8.46;100.00;99427.94;5277130;27;20246;-72
2024/04/16 07:15:57;;;;;;;4.73;1.50;;;;;;;8.51;100.00;99415.31;5277258;27;20329;-73
2024/04/16 07:18:23;;;;;;;1.67;1.43;;;;;;;8.59;100.00;99411.72;5276226;27;20351;-72
2024/04/16 07:20:51;;;;;;;4.53;1.70;;;;;;;8.67;100.00;99404.75;5264588;27;20242;-73
2024/04/16 07:23:20;;;;;;;2.60;1.60;;;;;;;8.77;100.00;99409.50;5277627;27;20300;-73
2024/04/16 07:25:47;;;;;;;3.40;1.47;;;;;;;8.85;100.00;99406.69;5272991;27;20641;-73
2024/04/16 07:28:13;;;;;;;7.80;1.97;;;;;;;8.89;100.00;99418.06;5276198;27;21086;-73
2024/04/16 07:30:42;;;;;;;3.10;1.50;;;;;;;8.96;100.00;99415.59;5279153;27;20263;-72
2024/04/16 07:33:09;;;;;;;2.30;1.83;;;;;;;9.00;100.00;99413.81;5272282;27;20273;-73
2024/04/16 07:35:37;;;;;;;3.40;1.73;;;;;;;9.08;100.00;99418.13;5274359;27;20281;-72
2024/04/16 07:38:03;;;;;;;5.13;1.90;;;;;;;9.18;100.00;99416.84;5275935;27;20770;-73
2024/04/16 07:40:34;;;;;;;4.80;1.60;;;;;;;9.31;100.00;99410.34;5268069;27;20352;-73
2024/04/16 07:43:00;;;;;;;3.67;1.53;;;;;;;9.37;100.00;99412.34;5272936;27;20805;-73
2024/04/16 07:45:28;;;;;;;3.73;1.43;;;;;;;9.36;100.00;99421.38;5276073;27;20318;-72
2024/04/16 07:47:53;;;;;;;2.37;1.57;;;;;;;9.37;100.00;99422.91;5282534;27;20909;-72
2024/04/16 07:50:21;;;;;;;3.20;1.73;;;;;;;9.41;100.00;99415.84;5277827;26;20252;-72
2024/04/16 07:52:47;;;;;;;3.00;1.73;;;;;;;9.44;100.00;99430.97;5272969;27;20289;-73
2024/04/16 07:55:15;;;;;;;3.43;1.50;;;;;;;9.45;100.00;99431.72;5275615;27;20747;-73
2024/04/16 07:57:43;;;;;;;6.70;1.60;;;;;;;9.50;100.00;99431.44;5274894;27;20251;-73
2024/04/16 08:00:12;;;;;;;3.43;1.40;;;;;;;9.58;100.00;99425.97;5283425;27;20644;-72
2024/04/16 08:02:37;;;;;;;3.00;1.47;;;;;;;9.72;100.00;99425.47;5272802;27;20387;-72
2024/04/16 08:05:07;;;;;;;3.17;1.50;;;;;;;9.85;100.00;99429.50;5275542;27;20243;-73
2024/04/16 08:07:32;;;;;;;3.27;1.27;;;;;;;9.86;100.00;99436.31;5260399;27;20384;-73
2024/04/16 08:10:02;;;;;;;2.93;1.50;;;;;;;9.82;100.00;99435.47;5263497;27;20256;-73
2024/04/16 08:12:28;;;;;;;7.67;1.60;;;;;;;9.89;100.00;99436.38;5271985;27;20229;-73
2024/04/16 08:14:59;;;;;;;3.03;1.50;;;;;;;9.99;100.00;99437.72;5273728;27;20280;-73
2024/04/16 08:17:25;;;;;;;2.10;1.50;;;;;;;10.10;100.00;99428.13;5267787;27;20275;-73
2024/04/16 08:19:53;;;;;;;4.97;1.60;;;;;;;10.26;100.00;99428.81;5274952;27;20346;-73
2024/04/16 08:22:19;;;;;;;4.93;1.37;;;;;;;10.38;100.00;99426.75;5271882;27;20285;-73
2024/04/16 08:24:47;;;;;;;5.40;2.00;;;;;;;10.46;100.00;99435.56;5273650;27;20252;-73
2024/04/16 08:27:12;;;;;;;4.57;1.63;;;;;;;10.50;100.00;99447.69;5274903;27;21077;-74
2024/04/16 08:29:40;;;;;;;7.47;1.57;;;;;;;10.50;100.00;99433.75;5275844;27;20245;-72
2024/04/16 08:32:09;;;;;;;5.20;1.70;;;;;;;10.70;99.03;99441.25;5268029;27;20234;-72
2024/04/16 08:34:39;;;;;;;3.00;1.77;;;;;;;10.87;99.53;99437.38;5273566;27;20237;-74
2024/04/16 08:37:04;;;;;;;5.07;1.83;;;;;;;10.80;81.60;99442.53;5270852;27;20299;-73
2024/04/16 08:39:32;;;;;;;4.17;1.30;;;;;;;10.79;85.01;99431.22;5273324;27;20240;-72
2024/04/16 08:41:59;;;;;;;4.30;2.40;;;;;;;10.76;85.46;99452.28;5273753;27;20297;-72
2024/04/16 08:44:28;;;;;;;14.80;8.70;;;;;;;10.76;94.37;99454.94;5273745;27;20276;-72
2024/04/16 08:46:54;;;;;;;11.03;5.10;;;;;;;10.77;81.26;99449.28;5281759;27;20329;-73
2024/04/16 08:49:28;;;;;;;10.63;6.23;;;;;;;10.72;82.00;99446.94;5268350;27;20683;-72
2024/04/16 08:51:55;;;;;;;3.67;1.30;;;;;;;10.65;86.06;99460.03;5272342;27;20241;-72
2024/04/16 08:54:24;;;;;;;3.50;1.23;;;;;;;10.70;87.22;99454.44;5273053;27;20291;-73
2024/04/16 08:56:50;;;;;;;5.43;1.63;;;;;;;10.74;87.90;99455.28;5281206;27;20274;-72
2024/04/16 08:59:19;;;;;;;5.00;1.30;;;;;;;10.73;84.91;99447.69;5271015;27;20328;-72
2024/04/16 09:01:47;;;;;;;2.27;1.20;;;;;;;10.77;88.98;99459.84;5272757;27;20232;-73
2024/04/16 09:04:17;;;;;;;3.80;1.30;;;;;;;10.75;87.87;99462.06;5271146;27;20288;-72
2024/04/16 09:06:47;;;;;;;4.30;1.70;;;;;;;10.74;89.54;99470.34;5272327;27;20612;-72
2024/04/16 09:09:15;;;;;;;2.13;1.07;;;;;;;10.71;85.56;99468.41;5266133;27;20244;-72
2024/04/16 09:11:40;;;;;;;2.63;1.13;;;;;;;10.72;83.85;99462.75;5270603;27;20251;-73
2024/04/16 09:14:08;;;;;;;3.57;1.60;;;;;;;10.68;81.24;99466.47;5273831;27;20860;-72
2024/04/16 09:16:35;;;;;;;3.80;1.40;;;;;;;10.74;83.74;99463.19;5272530;27;20652;-73
2024/04/16 09:19:10;;;;;;;4.60;2.17;;;;;;;10.72;89.74;99472.59;5273798;27;20246;-72
2024/04/16 09:21:35;;;;;;;3.53;1.47;;;;;;;10.73;84.38;99466.19;5265010;27;20244;-73
2024/04/16 09:24:07;;;;;;;3.77;1.40;;;;;;;10.71;88.15;99465.78;5273248;27;20257;-72
2024/04/16 09:26:33;;;;;;;2.37;1.10;;;;;;;10.69;84.39;99462.72;5268970;27;20239;-72
2024/04/16 09:29:01;;;;;;;3.87;1.43;;;;;;;10.62;88.11;99458.06;5273526;27;20957;-72
2024/04/16 09:31:27;;;;;;;3.47;1.47;;;;;;;10.61;83.81;99464.47;5272838;27;20245;-72
2024/04/16 09:34:05;;;;;;;2.63;1.27;;;;;;;10.58;89.35;99465.19;5272310;27;20248;-72
2024/04/16 09:36:31;;;;;;;3.80;1.23;;;;;;;10.51;80.81;99461.66;5271592;27;20323;-73
2024/04/16 09:39:03;;;;;;;4.13;1.20;;;;;;;10.58;81.32;99462.56;5271575;27;20243;-73
2024/04/16 09:41:32;;;;;;;4.73;2.10;;;;;;;10.63;78.12;99459.63;5271772;27;20235;-71
2024/04/16 09:44:01;;;;;;;2.43;1.47;;;;;;;10.73;87.78;99466.19;5270403;27;20236;-73
2024/04/16 09:46:28;;;;;;;2.73;1.30;;;;;;;10.83;87.59;99468.22;5268418;27;20395;-72
2024/04/16 09:48:59;;;;;;;2.37;1.30;;;;;;;10.81;78.47;99465.94;5273158;27;20365;-73
2024/04/16 09:51:25;;;;;;;2.53;1.40;;;;;;;10.86;83.51;99465.66;5270073;27;20652;-72
2024/04/16 09:53:55;;;;;;;3.40;1.50;;;;;;;10.94;90.38;99469.16;5272173;27;20238;-72
2024/04/16 09:56:23;;;;;;;3.93;1.30;;;;;;;10.95;78.41;99471.44;5273402;27;20287;-73
2024/04/16 09:58:54;;;;;;;2.80;1.80;;;;;;;11.12;89.10;99467.56;5269997;27;20307;-72
2024/04/16 10:01:20;;;;;;;4.20;1.40;;;;;;;11.28;82.91;99468.91;5273151;27;20281;-72
2024/04/16 10:03:51;;;;;;;2.53;1.70;;;;;;;11.37;69.07;99455.44;5274016;26;20244;-72
2024/04/16 10:06:16;;;;;;;3.23;1.20;;;;;;;11.51;70.08;99463.56;5277789;26;20258;-73
2024/04/16 10:08:44;;;;;;;2.27;1.30;;;;;;;11.69;78.36;99468.00;5275805;27;20661;-73
2024/04/16 10:11:10;;;;;;;5.30;1.17;;;;;;;11.92;81.42;99450.16;5277279;27;20311;-71
2024/04/16 10:13:40;;;;;;;3.67;1.00;;;;;;;12.08;71.79;99458.63;5271893;27;20688;-73
2024/04/16 10:16:12;;;;;;;2.60;1.10;;;;;;;12.17;66.83;99466.28;5263915;27;20367;-71
2024/04/16 10:18:40;;;;;;;3.50;1.07;;;;;;;12.16;82.20;99456.84;5269585;27;20241;-72
2024/04/16 10:21:05;;;;;;;5.43;0.90;;;;;;;12.16;75.07;99462.88;5267259;27;20334;-72
2024/04/16 10:23:33;;;;;;;3.57;1.20;;;;;;;12.23;72.64;99460.31;5274060;27;20296;-73
2024/04/16 10:25:59;;;;;;;2.50;1.30;;;;;;;12.33;66.10;99459.66;5264813;27;20237;-73
2024/04/16 10:28:28;;;;;;;6.03;0.90;;;;;;;12.37;61.84;99443.81;5273943;27;20356;-73
2024/04/16 10:30:59;;;;;;;4.17;1.37;;;;;;;12.38;80.90;99446.06;5268962;27;20272;-73
2024/04/16 10:33:34;;;;;;;3.77;1.00;;;;;;;12.29;72.68;99458.09;5275512;27;20251;-72
2024/04/16 10:35:59;;;;;;;1.50;0.93;;;;;;;12.37;63.92;99447.19;5272466;27;20284;-72
2024/04/16 10:38:27;;;;;;;1.73;1.07;;;;;;;12.49;71.49;99448.84;5265792;27;20745;-72
2024/04/16 10:40:53;;;;;;;3.03;1.30;;;;;;;12.72;71.98;99446.75;5274184;27;20821;-74
2024/04/16 10:43:24;;;;;;;4.03;1.20;;;;;;;12.93;64.37;99433.69;5273952;27;20249;-72
2024/04/16 10:45:49;;;;;;;1.93;1.03;;;;;;;12.89;60.25;99440.84;5274447;27;20358;-73
2024/04/16 10:48:20;;;;;;;3.67;1.50;;;;;;;12.86;61.76;99444.22;5273733;27;20240;-73
2024/04/16 10:50:49;;;;;;;3.73;1.27;;;;;;;12.65;60.33;99449.34;5274440;27;20314;-73
2024/04/16 10:53:20;;;;;;;1.97;1.10;;;;;;;12.58;58.01;99454.59;5274408;27;20248;-72
2024/04/16 10:55:45;;;;;;;2.33;1.20;;;;;;;12.54;70.38;99454.56;5274278;27;20237;-72
2024/04/16 10:58:15;;;;;;;1.77;0.90;;;;;;;12.66;60.03;99435.75;5273164;27;20291;-73
2024/04/16 11:00:41;;;;;;;1.77;1.20;;;;;;;12.69;68.17;99453.53;5272195;27;20237;-73
2024/04/16 11:03:11;;;;;;;3.07;1.10;;;;;;;12.66;63.68;99456.94;5272452;27;20795;-73
2024/04/16 11:05:40;;;;;;;3.20;1.30;;;;;;;12.67;59.16;99452.38;5273648;27;20238;-72
2024/04/16 11:08:11;;;;;;;1.80;1.10;;;;;;;12.59;61.52;99459.53;5272842;27;20242;-73
2024/04/16 11:10:36;;;;;;;2.87;1.30;;;;;;;12.73;58.39;99451.69;5273127;27;20245;-73
2024/04/16 11:13:05;;;;;;;3.93;1.37;;;;;;;12.79;58.53;99463.47;5268559;27;20299;-72
2024/04/16 11:15:32;;;;;;;1.60;1.00;;;;;;;12.75;60.37;99449.44;5266533;27;20855;-72
2024/04/16 11:18:00;;;;;;;2.37;0.87;;;;;;;12.87;62.36;99456.34;5265380;27;20250;-71
2024/04/16 11:20:27;;;;;;;1.83;0.83;;;;;;;13.09;65.03;99458.81;5271131;27;20229;-72
2024/04/16 11:22:55;;;;;;;2.80;0.80;;;;;;;13.14;59.91;99453.16;5269736;27;20339;-73
2024/04/16 11:25:23;;;;;;;3.43;0.90;;;;;;;13.06;58.55;99456.91;5273226;27;20367;-72
2024/04/16 11:27:52;;;;;;;3.07;0.80;;;;;;;13.11;58.18;99458.44;5273328;27;20681;-72
2024/04/16 11:30:17;;;;;;;2.73;0.93;;;;;;;13.11;63.33;99448.63;5268886;27;20253;-72
2024/04/16 11:32:45;;;;;;;2.47;0.90;;;;;;;13.23;59.51;99453.59;5276919;27;20280;-72
2024/04/16 11:35:11;;;;;;;3.13;1.27;;;;;;;13.30;55.43;99456.28;5266611;27;20233;-72